sensor_id;sensor_type;location;lat;lon;timestamp;temperature;humidity
44723;DHT22;30451;48.638;10.624;2024-01-30T00:01:43;21.70;47.10
44723;DHT22;30451;48.638;10.624;2024-01-30T00:04:08;21.70;47.10
44723;DHT22;30451;48.638;10.624;2024-01-30T00:06:34;21.70;47.10
44723;DHT22;30451;48.638;10.624;2024-01-30T00:08:59;21.70;47.10
44723;DHT22;30451;48.638;10.624;2024-01-30T00:11:25;21.70;47.10
44723;DHT22;30451;48.638;10.624;2024-01-30T00:13:52;21.70;47.10
44723;DHT22;30451;48.638;10.624;2024-01-30T00:16:24;21.70;47.10
44723;DHT22;30451;48.638;10.624;2024-01-30T00:18:53;21.60;47.10
44723;DHT22;30451;48.638;10.624;2024-01-30T00:21:20;21.60;47.10
44723;DHT22;30451;48.638;10.624;2024-01-30T00:23:45;21.60;47.10
44723;DHT22;30451;48.638;10.624;2024-01-30T00:26:11;21.60;47.10
44723;DHT22;30451;48.638;10.624;2024-01-30T00:28:38;21.60;47.10
44723;DHT22;30451;48.638;10.624;2024-01-30T00:31:04;21.60;47.10
44723;DHT22;30451;48.638;10.624;2024-01-30T00:33:30;21.50;47.00
44723;DHT22;30451;48.638;10.624;2024-01-30T00:35:55;21.60;47.10
44723;DHT22;30451;48.638;10.624;2024-01-30T00:38:21;21.60;47.10
44723;DHT22;30451;48.638;10.624;2024-01-30T00:40:48;21.50;47.10
44723;DHT22;30451;48.638;10.624;2024-01-30T00:43:14;21.50;47.10
44723;DHT22;30451;48.638;10.624;2024-01-30T00:45:39;21.50;47.10
44723;DHT22;30451;48.638;10.624;2024-01-30T00:48:05;21.50;47.10
44723;DHT22;30451;48.638;10.624;2024-01-30T00:50:31;21.50;47.10
44723;DHT22;30451;48.638;10.624;2024-01-30T00:52:56;21.40;47.10
44723;DHT22;30451;48.638;10.624;2024-01-30T00:55:22;21.40;47.10
44723;DHT22;30451;48.638;10.624;2024-01-30T00:57:48;21.40;47.10
44723;DHT22;30451;48.638;10.624;2024-01-30T01:00:14;21.40;47.10
44723;DHT22;30451;48.638;10.624;2024-01-30T01:02:42;21.40;47.10
44723;DHT22;30451;48.638;10.624;2024-01-30T01:05:08;21.40;47.10
44723;DHT22;30451;48.638;10.624;2024-01-30T01:07:34;21.40;47.10
44723;DHT22;30451;48.638;10.624;2024-01-30T01:10:00;21.40;47.10
44723;DHT22;30451;48.638;10.624;2024-01-30T01:12:25;21.40;47.10
44723;DHT22;30451;48.638;10.624;2024-01-30T01:14:51;21.30;47.10
44723;DHT22;30451;48.638;10.624;2024-01-30T01:17:17;21.30;47.10
44723;DHT22;30451;48.638;10.624;2024-01-30T01:19:44;21.30;47.10
44723;DHT22;30451;48.638;10.624;2024-01-30T01:22:09;21.30;47.10
44723;DHT22;30451;48.638;10.624;2024-01-30T01:24:35;21.30;47.10
44723;DHT22;30451;48.638;10.624;2024-01-30T01:27:01;21.30;47.10
44723;DHT22;30451;48.638;10.624;2024-01-30T01:29:27;21.30;47.10
44723;DHT22;30451;48.638;10.624;2024-01-30T01:31:56;21.20;47.00
44723;DHT22;30451;48.638;10.624;2024-01-30T01:34:22;21.20;47.50
44723;DHT22;30451;48.638;10.624;2024-01-30T01:36:49;21.20;47.00
44723;DHT22;30451;48.638;10.624;2024-01-30T01:39:15;21.20;47.10
44723;DHT22;30451;48.638;10.624;2024-01-30T01:41:41;21.20;47.10
44723;DHT22;30451;48.638;10.624;2024-01-30T01:44:07;21.20;47.10
44723;DHT22;30451;48.638;10.624;2024-01-30T01:46:34;21.20;47.10
44723;DHT22;30451;48.638;10.624;2024-01-30T01:49:04;21.20;47.00
44723;DHT22;30451;48.638;10.624;2024-01-30T01:51:31;21.10;47.00
44723;DHT22;30451;48.638;10.624;2024-01-30T01:54:00;21.10;47.00
44723;DHT22;30451;48.638;10.624;2024-01-30T01:56:27;21.20;47.10
44723;DHT22;30451;48.638;10.624;2024-01-30T01:58:55;21.10;47.00
44723;DHT22;30451;48.638;10.624;2024-01-30T02:01:21;21.10;47.00
44723;DHT22;30451;48.638;10.624;2024-01-30T02:03:47;21.10;47.00
44723;DHT22;30451;48.638;10.624;2024-01-30T02:06:16;21.10;47.00
44723;DHT22;30451;48.638;10.624;2024-01-30T02:08:42;21.10;47.00
44723;DHT22;30451;48.638;10.624;2024-01-30T02:11:08;21.10;47.00
44723;DHT22;30451;48.638;10.624;2024-01-30T02:13:35;21.10;47.00
44723;DHT22;30451;48.638;10.624;2024-01-30T02:16:01;21.10;47.00
44723;DHT22;30451;48.638;10.624;2024-01-30T02:18:27;21.00;47.00
44723;DHT22;30451;48.638;10.624;2024-01-30T02:20:54;21.00;47.00
44723;DHT22;30451;48.638;10.624;2024-01-30T02:23:23;21.00;47.00
44723;DHT22;30451;48.638;10.624;2024-01-30T02:25:52;21.00;47.00
44723;DHT22;30451;48.638;10.624;2024-01-30T02:28:19;21.00;47.00
44723;DHT22;30451;48.638;10.624;2024-01-30T02:30:46;21.00;47.00
44723;DHT22;30451;48.638;10.624;2024-01-30T02:33:15;21.00;47.00
44723;DHT22;30451;48.638;10.624;2024-01-30T02:35:40;21.00;47.00
44723;DHT22;30451;48.638;10.624;2024-01-30T02:38:06;20.90;47.00
44723;DHT22;30451;48.638;10.624;2024-01-30T02:40:32;20.90;47.00
44723;DHT22;30451;48.638;10.624;2024-01-30T02:43:01;20.90;47.00
44723;DHT22;30451;48.638;10.624;2024-01-30T02:45:27;20.90;47.00
44723;DHT22;30451;48.638;10.624;2024-01-30T02:47:53;20.90;47.00
44723;DHT22;30451;48.638;10.624;2024-01-30T02:50:19;20.90;47.00
44723;DHT22;30451;48.638;10.624;2024-01-30T02:52:44;20.90;47.10
44723;DHT22;30451;48.638;10.624;2024-01-30T02:55:11;20.90;47.00
44723;DHT22;30451;48.638;10.624;2024-01-30T02:57:37;20.90;47.00
44723;DHT22;30451;48.638;10.624;2024-01-30T03:00:03;20.80;47.00
44723;DHT22;30451;48.638;10.624;2024-01-30T03:02:31;20.80;47.00
44723;DHT22;30451;48.638;10.624;2024-01-30T03:04:57;20.80;47.10
44723;DHT22;30451;48.638;10.624;2024-01-30T03:07:23;20.80;47.10
44723;DHT22;30451;48.638;10.624;2024-01-30T03:09:49;20.80;47.10
44723;DHT22;30451;48.638;10.624;2024-01-30T03:12:14;20.80;47.10
44723;DHT22;30451;48.638;10.624;2024-01-30T03:14:40;20.80;47.10
44723;DHT22;30451;48.638;10.624;2024-01-30T03:17:06;20.80;47.10
44723;DHT22;30451;48.638;10.624;2024-01-30T03:19:31;20.70;47.10
44723;DHT22;30451;48.638;10.624;2024-01-30T03:21:57;20.70;47.10
44723;DHT22;30451;48.638;10.624;2024-01-30T03:24:22;20.80;47.10
44723;DHT22;30451;48.638;10.624;2024-01-30T03:26:48;20.70;47.10
44723;DHT22;30451;48.638;10.624;2024-01-30T03:29:14;20.80;47.10
44723;DHT22;30451;48.638;10.624;2024-01-30T03:31:39;20.70;47.10
44723;DHT22;30451;48.638;10.624;2024-01-30T03:34:05;20.70;47.10
44723;DHT22;30451;48.638;10.624;2024-01-30T03:36:30;20.70;47.10
44723;DHT22;30451;48.638;10.624;2024-01-30T03:38:58;20.70;47.10
44723;DHT22;30451;48.638;10.624;2024-01-30T03:41:24;20.70;47.10
44723;DHT22;30451;48.638;10.624;2024-01-30T03:43:50;20.70;47.20
44723;DHT22;30451;48.638;10.624;2024-01-30T03:46:16;20.70;47.20
44723;DHT22;30451;48.638;10.624;2024-01-30T03:48:41;20.70;47.20
44723;DHT22;30451;48.638;10.624;2024-01-30T03:51:07;20.70;47.20
44723;DHT22;30451;48.638;10.624;2024-01-30T03:53:33;20.70;47.20
44723;DHT22;30451;48.638;10.624;2024-01-30T03:55:59;20.70;47.40
44723;DHT22;30451;48.638;10.624;2024-01-30T03:58:24;20.70;47.20
44723;DHT22;30451;48.638;10.624;2024-01-30T04:00:50;20.60;47.10
44723;DHT22;30451;48.638;10.624;2024-01-30T04:03:16;20.70;47.20
44723;DHT22;30451;48.638;10.624;2024-01-30T04:05:42;20.70;47.20
44723;DHT22;30451;48.638;10.624;2024-01-30T04:08:08;20.60;47.20
44723;DHT22;30451;48.638;10.624;2024-01-30T04:10:34;20.60;47.10
44723;DHT22;30451;48.638;10.624;2024-01-30T04:12:59;20.60;47.20
44723;DHT22;30451;48.638;10.624;2024-01-30T04:15:26;20.60;47.20
44723;DHT22;30451;48.638;10.624;2024-01-30T04:17:51;20.60;47.20
44723;DHT22;30451;48.638;10.624;2024-01-30T04:20:17;20.60;47.20
44723;DHT22;30451;48.638;10.624;2024-01-30T04:22:46;20.60;47.20
44723;DHT22;30451;48.638;10.624;2024-01-30T04:25:13;20.60;47.20
44723;DHT22;30451;48.638;10.624;2024-01-30T04:27:39;20.60;47.20
44723;DHT22;30451;48.638;10.624;2024-01-30T04:30:05;20.60;47.30
44723;DHT22;30451;48.638;10.624;2024-01-30T04:32:32;20.60;47.30
44723;DHT22;30451;48.638;10.624;2024-01-30T04:34:58;20.50;47.30
44723;DHT22;30451;48.638;10.624;2024-01-30T04:37:24;20.60;47.30
44723;DHT22;30451;48.638;10.624;2024-01-30T04:39:50;20.60;47.30
44723;DHT22;30451;48.638;10.624;2024-01-30T04:42:16;20.50;47.30
44723;DHT22;30451;48.638;10.624;2024-01-30T04:44:42;20.50;47.30
44723;DHT22;30451;48.638;10.624;2024-01-30T04:47:07;20.50;47.30
44723;DHT22;30451;48.638;10.624;2024-01-30T04:49:34;20.50;47.30
44723;DHT22;30451;48.638;10.624;2024-01-30T04:52:00;20.50;47.30
44723;DHT22;30451;48.638;10.624;2024-01-30T04:54:26;20.50;47.30
44723;DHT22;30451;48.638;10.624;2024-01-30T04:56:51;20.50;47.40
44723;DHT22;30451;48.638;10.624;2024-01-30T04:59:17;20.50;47.40
44723;DHT22;30451;48.638;10.624;2024-01-30T05:01:43;20.50;47.40
44723;DHT22;30451;48.638;10.624;2024-01-30T05:04:09;20.50;47.40
44723;DHT22;30451;48.638;10.624;2024-01-30T05:06:35;20.50;47.50
44723;DHT22;30451;48.638;10.624;2024-01-30T05:09:00;20.40;47.50
44723;DHT22;30451;48.638;10.624;2024-01-30T05:11:26;20.40;47.60
44723;DHT22;30451;48.638;10.624;2024-01-30T05:13:51;20.40;47.60
44723;DHT22;30451;48.638;10.624;2024-01-30T05:16:17;20.40;47.60
44723;DHT22;30451;48.638;10.624;2024-01-30T05:18:43;20.40;48.20
44723;DHT22;30451;48.638;10.624;2024-01-30T05:21:10;20.40;47.70
44723;DHT22;30451;48.638;10.624;2024-01-30T05:23:36;20.40;47.70
44723;DHT22;30451;48.638;10.624;2024-01-30T05:26:02;20.40;47.70
44723;DHT22;30451;48.638;10.624;2024-01-30T05:28:29;20.40;47.70
44723;DHT22;30451;48.638;10.624;2024-01-30T05:30:55;20.40;47.80
44723;DHT22;30451;48.638;10.624;2024-01-30T05:33:21;20.40;47.80
44723;DHT22;30451;48.638;10.624;2024-01-30T05:35:47;20.40;47.70
44723;DHT22;30451;48.638;10.624;2024-01-30T05:38:15;20.40;47.80
44723;DHT22;30451;48.638;10.624;2024-01-30T05:40:40;20.40;47.80
44723;DHT22;30451;48.638;10.624;2024-01-30T05:43:06;20.30;47.90
44723;DHT22;30451;48.638;10.624;2024-01-30T05:45:33;20.30;47.80
44723;DHT22;30451;48.638;10.624;2024-01-30T05:47:59;20.30;47.80
44723;DHT22;30451;48.638;10.624;2024-01-30T05:50:25;20.30;47.90
44723;DHT22;30451;48.638;10.624;2024-01-30T05:52:51;20.30;47.90
44723;DHT22;30451;48.638;10.624;2024-01-30T05:55:17;20.30;47.90
44723;DHT22;30451;48.638;10.624;2024-01-30T05:57:43;20.30;47.90
44723;DHT22;30451;48.638;10.624;2024-01-30T06:00:08;20.30;48.00
44723;DHT22;30451;48.638;10.624;2024-01-30T06:02:34;20.30;48.10
44723;DHT22;30451;48.638;10.624;2024-01-30T06:04:59;20.30;48.10
44723;DHT22;30451;48.638;10.624;2024-01-30T06:07:25;20.30;48.10
44723;DHT22;30451;48.638;10.624;2024-01-30T06:09:51;20.30;48.10
44723;DHT22;30451;48.638;10.624;2024-01-30T06:12:16;20.30;48.20
44723;DHT22;30451;48.638;10.624;2024-01-30T06:14:42;20.30;48.20
44723;DHT22;30451;48.638;10.624;2024-01-30T06:17:08;20.30;48.20
44723;DHT22;30451;48.638;10.624;2024-01-30T06:19:34;20.30;48.70
44723;DHT22;30451;48.638;10.624;2024-01-30T06:22:00;20.30;48.20
44723;DHT22;30451;48.638;10.624;2024-01-30T06:24:25;20.30;48.20
44723;DHT22;30451;48.638;10.624;2024-01-30T06:26:51;20.20;48.20
44723;DHT22;30451;48.638;10.624;2024-01-30T06:29:17;20.30;48.20
44723;DHT22;30451;48.638;10.624;2024-01-30T06:31:42;20.30;48.20
44723;DHT22;30451;48.638;10.624;2024-01-30T06:34:09;20.20;48.20
44723;DHT22;30451;48.638;10.624;2024-01-30T06:36:35;20.20;48.20
44723;DHT22;30451;48.638;10.624;2024-01-30T06:39:02;20.20;48.20
44723;DHT22;30451;48.638;10.624;2024-01-30T06:41:28;20.20;48.30
44723;DHT22;30451;48.638;10.624;2024-01-30T06:43:53;20.20;48.80
44723;DHT22;30451;48.638;10.624;2024-01-30T06:46:19;20.20;48.50
44723;DHT22;30451;48.638;10.624;2024-01-30T06:48:44;20.20;48.50
44723;DHT22;30451;48.638;10.624;2024-01-30T06:51:11;20.20;48.40
44723;DHT22;30451;48.638;10.624;2024-01-30T06:53:37;20.20;48.50
44723;DHT22;30451;48.638;10.624;2024-01-30T06:56:03;20.20;48.50
44723;DHT22;30451;48.638;10.624;2024-01-30T06:58:29;20.20;48.40
44723;DHT22;30451;48.638;10.624;2024-01-30T07:00:55;20.20;48.50
44723;DHT22;30451;48.638;10.624;2024-01-30T07:03:21;20.20;48.40
44723;DHT22;30451;48.638;10.624;2024-01-30T07:05:47;20.20;48.50
44723;DHT22;30451;48.638;10.624;2024-01-30T07:08:12;20.20;48.50
44723;DHT22;30451;48.638;10.624;2024-01-30T07:10:38;20.20;48.50
44723;DHT22;30451;48.638;10.624;2024-01-30T07:13:04;20.20;48.50
44723;DHT22;30451;48.638;10.624;2024-01-30T07:15:31;20.20;48.50
44723;DHT22;30451;48.638;10.624;2024-01-30T07:17:56;20.20;48.60
44723;DHT22;30451;48.638;10.624;2024-01-30T07:20:22;20.20;48.50
44723;DHT22;30451;48.638;10.624;2024-01-30T07:22:48;20.20;48.50
44723;DHT22;30451;48.638;10.624;2024-01-30T07:25:13;20.20;48.60
44723;DHT22;30451;48.638;10.624;2024-01-30T07:27:39;20.20;48.60
44723;DHT22;30451;48.638;10.624;2024-01-30T07:30:05;20.20;48.60
44723;DHT22;30451;48.638;10.624;2024-01-30T07:32:31;20.20;48.60
44723;DHT22;30451;48.638;10.624;2024-01-30T07:34:57;20.20;48.60
44723;DHT22;30451;48.638;10.624;2024-01-30T07:37:23;20.20;48.60
44723;DHT22;30451;48.638;10.624;2024-01-30T07:39:48;20.20;48.60
44723;DHT22;30451;48.638;10.624;2024-01-30T07:42:14;20.20;48.60
44723;DHT22;30451;48.638;10.624;2024-01-30T07:44:40;20.20;48.60
44723;DHT22;30451;48.638;10.624;2024-01-30T07:47:05;20.20;48.60
44723;DHT22;30451;48.638;10.624;2024-01-30T07:49:31;20.10;48.60
44723;DHT22;30451;48.638;10.624;2024-01-30T07:51:57;20.10;49.10
44723;DHT22;30451;48.638;10.624;2024-01-30T07:54:22;20.10;48.60
44723;DHT22;30451;48.638;10.624;2024-01-30T07:56:48;20.10;48.70
44723;DHT22;30451;48.638;10.624;2024-01-30T07:59:14;20.10;48.70
44723;DHT22;30451;48.638;10.624;2024-01-30T08:01:41;20.10;48.70
44723;DHT22;30451;48.638;10.624;2024-01-30T08:04:06;20.10;48.70
44723;DHT22;30451;48.638;10.624;2024-01-30T08:06:33;20.10;48.70
44723;DHT22;30451;48.638;10.624;2024-01-30T08:08:58;20.10;48.70
44723;DHT22;30451;48.638;10.624;2024-01-30T08:11:24;20.10;48.70
44723;DHT22;30451;48.638;10.624;2024-01-30T08:13:54;20.10;49.20
44723;DHT22;30451;48.638;10.624;2024-01-30T08:16:20;20.10;48.70
44723;DHT22;30451;48.638;10.624;2024-01-30T08:18:46;20.10;48.70
44723;DHT22;30451;48.638;10.624;2024-01-30T08:21:11;20.10;48.70
44723;DHT22;30451;48.638;10.624;2024-01-30T08:23:39;20.10;48.70
44723;DHT22;30451;48.638;10.624;2024-01-30T08:26:05;20.10;48.70
44723;DHT22;30451;48.638;10.624;2024-01-30T08:28:31;20.10;48.70
44723;DHT22;30451;48.638;10.624;2024-01-30T08:30:56;20.10;48.70
44723;DHT22;30451;48.638;10.624;2024-01-30T08:33:22;20.10;48.70
44723;DHT22;30451;48.638;10.624;2024-01-30T08:35:48;20.10;48.70
44723;DHT22;30451;48.638;10.624;2024-01-30T08:38:14;20.10;49.20
44723;DHT22;30451;48.638;10.624;2024-01-30T08:40:39;20.10;48.70
44723;DHT22;30451;48.638;10.624;2024-01-30T08:43:05;20.10;48.70
44723;DHT22;30451;48.638;10.624;2024-01-30T08:45:31;20.10;48.70
44723;DHT22;30451;48.638;10.624;2024-01-30T08:47:56;20.10;48.70
44723;DHT22;30451;48.638;10.624;2024-01-30T08:50:22;20.10;48.70
44723;DHT22;30451;48.638;10.624;2024-01-30T08:52:48;20.10;48.70
44723;DHT22;30451;48.638;10.624;2024-01-30T08:55:13;20.10;48.70
44723;DHT22;30451;48.638;10.624;2024-01-30T08:57:39;20.10;48.70
44723;DHT22;30451;48.638;10.624;2024-01-30T09:00:05;20.10;48.70
44723;DHT22;30451;48.638;10.624;2024-01-30T09:02:32;20.10;48.70
44723;DHT22;30451;48.638;10.624;2024-01-30T09:04:58;20.10;48.70
44723;DHT22;30451;48.638;10.624;2024-01-30T09:07:24;20.10;48.70
44723;DHT22;30451;48.638;10.624;2024-01-30T09:09:49;20.10;48.70
44723;DHT22;30451;48.638;10.624;2024-01-30T09:12:15;20.10;48.70
44723;DHT22;30451;48.638;10.624;2024-01-30T09:14:41;20.10;48.70
44723;DHT22;30451;48.638;10.624;2024-01-30T09:17:07;20.00;48.70
44723;DHT22;30451;48.638;10.624;2024-01-30T09:19:33;20.10;48.70
44723;DHT22;30451;48.638;10.624;2024-01-30T09:21:59;20.10;49.30
44723;DHT22;30451;48.638;10.624;2024-01-30T09:24:26;20.10;48.70
44723;DHT22;30451;48.638;10.624;2024-01-30T09:26:52;20.10;48.70
44723;DHT22;30451;48.638;10.624;2024-01-30T09:29:17;20.10;48.70
44723;DHT22;30451;48.638;10.624;2024-01-30T09:31:46;20.10;48.70
44723;DHT22;30451;48.638;10.624;2024-01-30T09:34:13;20.10;48.70
44723;DHT22;30451;48.638;10.624;2024-01-30T09:36:38;20.10;48.70
44723;DHT22;30451;48.638;10.624;2024-01-30T09:39:04;20.10;48.70
44723;DHT22;30451;48.638;10.624;2024-01-30T09:41:33;20.10;48.70
44723;DHT22;30451;48.638;10.624;2024-01-30T09:44:01;20.10;48.70
44723;DHT22;30451;48.638;10.624;2024-01-30T09:46:28;20.10;48.70
44723;DHT22;30451;48.638;10.624;2024-01-30T09:48:57;20.10;48.70
44723;DHT22;30451;48.638;10.624;2024-01-30T09:51:24;20.10;48.80
44723;DHT22;30451;48.638;10.624;2024-01-30T09:53:50;20.10;48.70
44723;DHT22;30451;48.638;10.624;2024-01-30T09:56:16;20.10;48.80
44723;DHT22;30451;48.638;10.624;2024-01-30T09:58:42;20.10;48.70
44723;DHT22;30451;48.638;10.624;2024-01-30T10:01:08;20.10;48.70
44723;DHT22;30451;48.638;10.624;2024-01-30T10:03:33;20.10;48.70
44723;DHT22;30451;48.638;10.624;2024-01-30T10:06:00;20.10;49.20
44723;DHT22;30451;48.638;10.624;2024-01-30T10:08:26;20.10;48.70
44723;DHT22;30451;48.638;10.624;2024-01-30T10:10:52;20.10;48.70
44723;DHT22;30451;48.638;10.624;2024-01-30T10:13:18;20.10;48.70
44723;DHT22;30451;48.638;10.624;2024-01-30T10:15:44;20.10;48.70
44723;DHT22;30451;48.638;10.624;2024-01-30T10:18:10;20.10;48.70
44723;DHT22;30451;48.638;10.624;2024-01-30T10:20:36;20.10;48.70
44723;DHT22;30451;48.638;10.624;2024-01-30T10:23:02;20.10;48.70
44723;DHT22;30451;48.638;10.624;2024-01-30T10:25:30;20.10;48.70
44723;DHT22;30451;48.638;10.624;2024-01-30T10:27:56;20.10;48.70
44723;DHT22;30451;48.638;10.624;2024-01-30T10:30:22;20.10;49.20
44723;DHT22;30451;48.638;10.624;2024-01-30T10:32:48;20.10;48.70
44723;DHT22;30451;48.638;10.624;2024-01-30T10:35:15;20.10;48.70
44723;DHT22;30451;48.638;10.624;2024-01-30T10:37:44;20.10;48.70
44723;DHT22;30451;48.638;10.624;2024-01-30T10:40:13;20.10;48.70
44723;DHT22;30451;48.638;10.624;2024-01-30T10:42:42;20.10;48.70
44723;DHT22;30451;48.638;10.624;2024-01-30T10:45:09;20.10;48.70
44723;DHT22;30451;48.638;10.624;2024-01-30T10:47:40;20.10;48.70
44723;DHT22;30451;48.638;10.624;2024-01-30T10:50:07;20.10;48.70
44723;DHT22;30451;48.638;10.624;2024-01-30T10:52:34;20.10;48.70
44723;DHT22;30451;48.638;10.624;2024-01-30T10:55:00;20.10;48.70
44723;DHT22;30451;48.638;10.624;2024-01-30T10:57:26;20.10;48.70
44723;DHT22;30451;48.638;10.624;2024-01-30T11:00:03;20.10;48.70
44723;DHT22;30451;48.638;10.624;2024-01-30T11:02:40;20.10;48.70
44723;DHT22;30451;48.638;10.624;2024-01-30T11:05:06;20.10;48.70
44723;DHT22;30451;48.638;10.624;2024-01-30T11:07:32;20.00;48.60
44723;DHT22;30451;48.638;10.624;2024-01-30T11:12:27;20.00;48.60
44723;DHT22;30451;48.638;10.624;2024-01-30T11:15:06;20.00;49.20
44723;DHT22;30451;48.638;10.624;2024-01-30T11:20:26;20.00;48.70
44723;DHT22;30451;48.638;10.624;2024-01-30T11:22:54;20.00;48.60
44723;DHT22;30451;48.638;10.624;2024-01-30T11:25:22;20.00;48.60
44723;DHT22;30451;48.638;10.624;2024-01-30T11:27:50;20.10;48.70
44723;DHT22;30451;48.638;10.624;2024-01-30T11:33:08;20.10;48.70
44723;DHT22;30451;48.638;10.624;2024-01-30T11:35:36;20.00;48.60
44723;DHT22;30451;48.638;10.624;2024-01-30T11:38:03;20.00;48.60
44723;DHT22;30451;48.638;10.624;2024-01-30T11:40:30;20.00;48.60
44723;DHT22;30451;48.638;10.624;2024-01-30T11:43:00;20.00;48.60
44723;DHT22;30451;48.638;10.624;2024-01-30T11:45:28;20.00;48.60
44723;DHT22;30451;48.638;10.624;2024-01-30T11:47:54;20.00;48.60
44723;DHT22;30451;48.638;10.624;2024-01-30T11:50:20;20.00;48.60
44723;DHT22;30451;48.638;10.624;2024-01-30T11:52:47;20.00;48.60
44723;DHT22;30451;48.638;10.624;2024-01-30T11:55:14;20.00;48.70
44723;DHT22;30451;48.638;10.624;2024-01-30T11:57:40;20.00;48.60
44723;DHT22;30451;48.638;10.624;2024-01-30T12:00:06;20.00;48.60
44723;DHT22;30451;48.638;10.624;2024-01-30T12:02:40;20.00;48.60
44723;DHT22;30451;48.638;10.624;2024-01-30T12:05:06;20.00;48.70
44723;DHT22;30451;48.638;10.624;2024-01-30T12:07:33;20.00;48.70
44723;DHT22;30451;48.638;10.624;2024-01-30T12:09:59;20.00;48.70
44723;DHT22;30451;48.638;10.624;2024-01-30T12:12:28;20.00;48.70
44723;DHT22;30451;48.638;10.624;2024-01-30T12:14:55;20.00;48.60
44723;DHT22;30451;48.638;10.624;2024-01-30T12:17:29;20.00;48.60
44723;DHT22;30451;48.638;10.624;2024-01-30T12:20:11;20.00;48.60
44723;DHT22;30451;48.638;10.624;2024-01-30T12:22:42;20.00;48.70
44723;DHT22;30451;48.638;10.624;2024-01-30T12:25:12;20.00;48.60
44723;DHT22;30451;48.638;10.624;2024-01-30T12:27:39;20.00;48.70
44723;DHT22;30451;48.638;10.624;2024-01-30T12:30:08;20.00;48.70
44723;DHT22;30451;48.638;10.624;2024-01-30T12:32:42;20.00;48.60
44723;DHT22;30451;48.638;10.624;2024-01-30T12:35:20;20.00;48.60
44723;DHT22;30451;48.638;10.624;2024-01-30T12:37:47;20.00;48.60
44723;DHT22;30451;48.638;10.624;2024-01-30T12:40:16;20.00;48.60
44723;DHT22;30451;48.638;10.624;2024-01-30T12:42:43;20.00;48.70
44723;DHT22;30451;48.638;10.624;2024-01-30T12:45:11;20.00;48.70
44723;DHT22;30451;48.638;10.624;2024-01-30T12:47:37;20.00;48.70
44723;DHT22;30451;48.638;10.624;2024-01-30T12:50:02;20.00;48.70
44723;DHT22;30451;48.638;10.624;2024-01-30T12:52:28;20.00;48.70
44723;DHT22;30451;48.638;10.624;2024-01-30T12:54:54;20.00;48.60
44723;DHT22;30451;48.638;10.624;2024-01-30T12:57:20;20.00;48.60
44723;DHT22;30451;48.638;10.624;2024-01-30T12:59:46;20.00;49.10
44723;DHT22;30451;48.638;10.624;2024-01-30T13:02:13;20.00;48.50
44723;DHT22;30451;48.638;10.624;2024-01-30T13:04:39;20.00;48.50
44723;DHT22;30451;48.638;10.624;2024-01-30T13:07:04;20.00;48.40
44723;DHT22;30451;48.638;10.624;2024-01-30T13:09:30;20.00;48.40
44723;DHT22;30451;48.638;10.624;2024-01-30T13:11:57;20.00;48.40
44723;DHT22;30451;48.638;10.624;2024-01-30T13:14:23;20.00;48.40
44723;DHT22;30451;48.638;10.624;2024-01-30T13:16:49;20.00;48.40
44723;DHT22;30451;48.638;10.624;2024-01-30T13:19:15;20.00;48.40
44723;DHT22;30451;48.638;10.624;2024-01-30T13:21:41;20.00;48.30
44723;DHT22;30451;48.638;10.624;2024-01-30T13:24:07;20.00;48.30
44723;DHT22;30451;48.638;10.624;2024-01-30T13:26:32;20.00;48.30
44723;DHT22;30451;48.638;10.624;2024-01-30T13:28:58;20.00;48.30
44723;DHT22;30451;48.638;10.624;2024-01-30T13:31:24;20.00;48.40
44723;DHT22;30451;48.638;10.624;2024-01-30T13:33:50;20.00;48.30
44723;DHT22;30451;48.638;10.624;2024-01-30T13:36:16;20.00;48.30
44723;DHT22;30451;48.638;10.624;2024-01-30T13:38:42;20.00;48.40
44723;DHT22;30451;48.638;10.624;2024-01-30T13:41:07;20.00;48.40
44723;DHT22;30451;48.638;10.624;2024-01-30T13:43:33;20.00;48.40
44723;DHT22;30451;48.638;10.624;2024-01-30T13:45:59;20.00;48.40
44723;DHT22;30451;48.638;10.624;2024-01-30T13:48:24;20.00;48.40
44723;DHT22;30451;48.638;10.624;2024-01-30T13:50:50;20.00;48.40
44723;DHT22;30451;48.638;10.624;2024-01-30T13:53:16;20.00;48.40
44723;DHT22;30451;48.638;10.624;2024-01-30T13:55:42;20.00;48.50
44723;DHT22;30451;48.638;10.624;2024-01-30T13:58:07;20.00;48.40
44723;DHT22;30451;48.638;10.624;2024-01-30T14:00:33;20.00;48.40
44723;DHT22;30451;48.638;10.624;2024-01-30T14:02:59;20.00;48.50
44723;DHT22;30451;48.638;10.624;2024-01-30T14:05:28;20.00;48.50
44723;DHT22;30451;48.638;10.624;2024-01-30T14:07:54;20.00;48.50
44723;DHT22;30451;48.638;10.624;2024-01-30T14:10:20;20.00;49.10
44723;DHT22;30451;48.638;10.624;2024-01-30T14:12:46;20.00;48.50
44723;DHT22;30451;48.638;10.624;2024-01-30T14:15:14;20.00;48.50
44723;DHT22;30451;48.638;10.624;2024-01-30T14:17:47;20.00;48.50
44723;DHT22;30451;48.638;10.624;2024-01-30T14:20:14;20.00;48.70
44723;DHT22;30451;48.638;10.624;2024-01-30T14:22:40;20.00;48.90
44723;DHT22;30451;48.638;10.624;2024-01-30T14:25:06;20.00;49.10
44723;DHT22;30451;48.638;10.624;2024-01-30T14:27:32;20.00;49.10
44723;DHT22;30451;48.638;10.624;2024-01-30T14:29:58;20.00;49.20
44723;DHT22;30451;48.638;10.624;2024-01-30T14:32:24;20.00;49.30
44723;DHT22;30451;48.638;10.624;2024-01-30T14:34:50;20.00;49.40
44723;DHT22;30451;48.638;10.624;2024-01-30T14:37:18;20.00;50.10
44723;DHT22;30451;48.638;10.624;2024-01-30T14:39:43;20.00;49.60
44723;DHT22;30451;48.638;10.624;2024-01-30T14:42:09;20.00;49.70
44723;DHT22;30451;48.638;10.624;2024-01-30T14:44:35;20.00;49.80
44723;DHT22;30451;48.638;10.624;2024-01-30T14:47:01;20.10;49.90
44723;DHT22;30451;48.638;10.624;2024-01-30T14:49:27;20.10;50.00
44723;DHT22;30451;48.638;10.624;2024-01-30T14:51:53;20.10;50.00
44723;DHT22;30451;48.638;10.624;2024-01-30T14:54:19;20.10;50.10
44723;DHT22;30451;48.638;10.624;2024-01-30T14:56:45;20.10;50.20
44723;DHT22;30451;48.638;10.624;2024-01-30T14:59:11;20.10;50.10
44723;DHT22;30451;48.638;10.624;2024-01-30T15:01:37;20.10;50.40
44723;DHT22;30451;48.638;10.624;2024-01-30T15:04:03;20.10;51.00
44723;DHT22;30451;48.638;10.624;2024-01-30T15:06:29;20.10;50.40
44723;DHT22;30451;48.638;10.624;2024-01-30T15:08:54;20.10;50.30
44723;DHT22;30451;48.638;10.624;2024-01-30T15:11:20;20.10;50.30
44723;DHT22;30451;48.638;10.624;2024-01-30T15:13:46;20.20;50.20
44723;DHT22;30451;48.638;10.624;2024-01-30T15:16:12;20.20;50.20
44723;DHT22;30451;48.638;10.624;2024-01-30T15:18:38;20.10;50.00